createdAt,value
2018-04-14T00:00:52.113Z,86.47
2018-04-14T00:03:19.543Z,92.73
2018-04-14T00:05:56.435Z,84.07
2018-04-14T00:08:24.635Z,82.83
2018-04-14T00:10:52.864Z,86.13
2018-04-14T00:13:20.299Z,91.03
2018-04-14T00:15:47.731Z,90.40
2018-04-14T00:18:15.919Z,88.50
2018-04-14T00:20:43.436Z,89.90
2018-04-14T00:23:10.986Z,80.33
2018-04-14T00:25:38.441Z,83.93
2018-04-14T00:28:05.897Z,81.07
2018-04-14T00:30:33.328Z,87.93
2018-04-14T00:33:00.805Z,83.30
2018-04-14T00:35:28.256Z,82.97
2018-04-14T00:37:55.705Z,86.60
2018-04-14T00:40:23.142Z,81.23
2018-04-14T00:42:50.587Z,91.13
2018-04-14T00:45:18.812Z,86.93
2018-04-14T00:47:46.256Z,83.40
2018-04-14T00:50:13.711Z,86.80
2018-04-14T00:52:41.191Z,82.37
2018-04-14T00:55:08.612Z,90.60
2018-04-14T00:57:36.033Z,83.97
2018-04-14T01:00:04.248Z,77.67
2018-04-14T01:02:31.680Z,82.00
2018-04-14T01:04:59.179Z,84.60
2018-04-14T01:07:26.618Z,86.63
2018-04-14T01:09:54.204Z,88.73
2018-04-14T01:12:21.786Z,80.20
2018-04-14T01:14:49.313Z,87.00
2018-04-14T01:17:16.784Z,88.77
2018-04-14T01:19:44.217Z,85.00
2018-04-14T01:22:11.649Z,92.53
2018-04-14T01:24:39.082Z,83.90
2018-04-14T01:27:07.295Z,86.17
2018-04-14T01:29:34.718Z,91.83
2018-04-14T01:32:02.920Z,91.50
2018-04-14T01:34:30.401Z,96.93
2018-04-14T01:36:57.856Z,91.17
2018-04-14T01:39:25.465Z,104.17
2018-04-14T01:41:52.896Z,100.17
2018-04-14T01:44:20.352Z,103.43
2018-04-14T01:46:47.786Z,95.60
2018-04-14T01:49:15.231Z,103.23
2018-04-14T01:51:42.707Z,104.37
2018-04-14T01:54:10.217Z,102.23
2018-04-14T01:56:37.730Z,95.63
2018-04-14T01:59:05.169Z,99.97
2018-04-14T02:01:32.626Z,94.03
2018-04-14T02:04:00.111Z,103.93
2018-04-14T02:06:27.547Z,110.07
2018-04-14T02:08:54.983Z,98.80
2018-04-14T02:11:22.415Z,100.47
2018-04-14T02:13:50.627Z,107.53
2018-04-14T02:16:18.069Z,100.47
2018-04-14T02:18:45.565Z,100.93
2018-04-14T02:21:13.015Z,97.93
2018-04-14T02:23:40.457Z,111.03
2018-04-14T02:26:07.929Z,106.60
2018-04-14T02:28:35.391Z,102.93
2018-04-14T02:31:02.839Z,96.60
2018-04-14T02:33:30.391Z,111.00
2018-04-14T02:35:57.960Z,95.50
2018-04-14T02:38:25.523Z,104.40
2018-04-14T02:40:52.954Z,106.50
2018-04-14T02:43:20.391Z,105.57
2018-04-14T02:45:48.620Z,93.17
2018-04-14T02:48:16.061Z,95.67
2018-04-14T02:50:43.547Z,96.53
2018-04-14T02:53:11.083Z,100.63
2018-04-14T02:55:38.603Z,101.40
2018-04-14T02:58:06.809Z,101.77
2018-04-14T03:00:34.268Z,103.77
2018-04-14T03:03:01.711Z,106.80
2018-04-14T03:05:29.152Z,106.30
2018-04-14T03:07:57.352Z,99.90
2018-04-14T03:10:24.804Z,108.20
2018-04-14T03:12:52.215Z,97.40
2018-04-14T03:15:19.646Z,114.50
2018-04-14T03:17:47.842Z,117.03
2018-04-14T03:20:15.271Z,106.53
2018-04-14T03:22:42.790Z,111.20
2018-04-14T03:25:10.224Z,103.93
2018-04-14T03:27:37.670Z,100.77
2018-04-14T03:30:05.099Z,103.93
2018-04-14T03:32:32.618Z,111.70
2018-04-14T03:35:00.054Z,114.53
2018-04-14T03:37:27.539Z,117.77
2018-04-14T03:39:54.979Z,107.73
2018-04-14T03:42:22.407Z,106.90
2018-04-14T03:44:50.635Z,107.97
2018-04-14T03:47:18.091Z,108.50
2018-04-14T03:49:45.526Z,114.70
2018-04-14T03:52:12.995Z,121.43
2018-04-14T03:54:40.490Z,110.60
2018-04-14T03:57:08.033Z,104.13
2018-04-14T03:59:35.478Z,99.03
2018-04-14T04:02:02.926Z,102.90
2018-04-14T04:04:30.390Z,108.87
2018-04-14T04:06:57.835Z,109.90
2018-04-14T04:09:25.317Z,96.17
2018-04-14T04:11:52.754Z,100.87
2018-04-14T04:14:20.178Z,97.50
2018-04-14T04:16:48.375Z,99.83
2018-04-14T04:19:27.636Z,99.07
2018-04-14T04:22:06.883Z,116.03
2018-04-14T04:24:46.245Z,104.93
2018-04-14T04:27:13.681Z,101.53
2018-04-14T04:29:41.150Z,105.20
2018-04-14T04:32:08.625Z,104.30
2018-04-14T04:34:36.137Z,111.17
2018-04-14T04:37:03.603Z,121.83
2018-04-14T04:39:31.154Z,103.77
2018-04-14T04:41:58.622Z,119.50
2018-04-14T04:44:26.071Z,118.63
2018-04-14T04:46:53.526Z,110.13
2018-04-14T04:49:21.105Z,122.23
2018-04-14T04:51:48.544Z,119.90
2018-04-14T04:54:15.979Z,116.53
2018-04-14T04:56:43.421Z,109.77
2018-04-14T04:59:11.618Z,104.13
2018-04-14T05:01:39.087Z,113.97
2018-04-14T05:04:06.522Z,110.77
2018-04-14T05:06:33.959Z,104.13
2018-04-14T05:09:02.175Z,107.93
2018-04-14T05:11:29.616Z,101.73
2018-04-14T05:13:57.082Z,100.17
2018-04-14T05:16:24.532Z,88.60
2018-04-14T05:18:51.941Z,89.23
2018-04-14T05:21:20.176Z,94.77
2018-04-14T05:23:47.622Z,106.00
2018-04-14T05:26:15.095Z,102.20
2018-04-14T05:28:42.534Z,108.17
2018-04-14T05:31:09.991Z,114.60
2018-04-14T05:33:37.429Z,117.03
2018-04-14T05:36:04.884Z,105.30
2018-04-14T05:38:33.183Z,120.63
2018-04-14T05:41:00.652Z,113.83
2018-04-14T05:43:28.100Z,94.43
2018-04-14T05:45:55.559Z,93.37
2018-04-14T05:48:23.004Z,101.00
2018-04-14T05:50:50.465Z,107.93
2018-04-14T05:53:17.941Z,114.07
2018-04-14T05:55:45.370Z,106.17
2018-04-14T05:58:12.825Z,94.47
2018-04-14T06:00:41.039Z,101.07
2018-04-14T06:03:08.468Z,111.00
2018-04-14T06:05:35.903Z,117.37
2018-04-14T06:08:04.103Z,115.60
2018-04-14T06:10:31.532Z,127.50
2018-04-14T06:12:59.746Z,128.27
2018-04-14T06:15:27.205Z,123.27
2018-04-14T06:17:54.660Z,122.60
2018-04-14T06:20:22.108Z,126.30
2018-04-14T06:22:49.598Z,120.67
2018-04-14T06:25:17.044Z,118.00
2018-04-14T06:27:44.490Z,146.10
2018-04-14T06:30:11.921Z,140.07
2018-04-14T06:32:39.401Z,139.33
2018-04-14T06:35:07.555Z,126.53
2018-04-14T06:37:34.983Z,149.00
2018-04-14T06:40:03.260Z,141.13
2018-04-14T06:42:30.675Z,122.67
2018-04-14T06:44:58.145Z,142.07
2018-04-14T06:47:25.564Z,138.90
2018-04-14T06:49:53.015Z,131.77
2018-04-14T06:52:20.461Z,131.37
2018-04-14T06:54:47.894Z,133.97
2018-04-14T06:57:15.411Z,124.20
2018-04-14T06:59:42.868Z,128.93
2018-04-14T07:02:10.305Z,120.83
2018-04-14T07:04:37.807Z,125.50
2018-04-14T07:07:05.191Z,128.77
2018-04-14T07:09:33.417Z,116.27
2018-04-14T07:12:00.863Z,123.20
2018-04-14T07:14:28.297Z,111.97
2018-04-14T07:16:55.820Z,104.83
2018-04-14T07:19:23.304Z,119.70
2018-04-14T07:21:51.510Z,115.97
2018-04-14T07:24:18.945Z,109.83
2018-04-14T07:26:46.386Z,97.47
2018-04-14T07:29:13.827Z,106.23
2018-04-14T07:31:41.265Z,110.67
2018-04-14T07:34:08.826Z,117.30
2018-04-14T07:36:36.254Z,108.00
2018-04-14T07:39:03.699Z,106.93
2018-04-14T07:41:31.140Z,104.30
2018-04-14T07:43:59.459Z,108.87
2018-04-14T07:46:26.928Z,96.67
2018-04-14T07:48:54.373Z,114.70
2018-04-14T07:51:21.852Z,101.60
2018-04-14T07:53:49.290Z,97.07
2018-04-14T07:56:16.740Z,95.47
2018-04-14T07:58:44.210Z,102.57
2018-04-14T08:01:11.679Z,97.27
2018-04-14T08:03:39.131Z,99.60
2018-04-14T08:06:06.679Z,93.57
2018-04-14T08:08:34.110Z,96.83
2018-04-14T08:11:01.546Z,94.50
2018-04-14T08:13:29.781Z,92.43
2018-04-14T08:15:57.333Z,85.27
2018-04-14T08:18:24.820Z,87.80
2018-04-14T08:20:52.237Z,92.03
2018-04-14T08:23:20.263Z,99.60
2018-04-14T08:25:48.211Z,93.40
2018-04-14T08:28:15.638Z,88.00
2018-04-14T08:30:43.103Z,87.77
2018-04-14T08:33:10.561Z,84.77
2018-04-14T08:35:38.043Z,93.70
2018-04-14T08:38:05.468Z,86.23
2018-04-14T08:40:32.940Z,79.23
2018-04-14T08:43:00.378Z,75.67
2018-04-14T08:45:27.863Z,80.30
2018-04-14T08:47:56.098Z,76.53
2018-04-14T08:50:23.575Z,75.03
2018-04-14T08:52:51.023Z,76.90
2018-04-14T08:55:18.477Z,73.53
2018-04-14T08:57:45.917Z,73.57
2018-04-14T09:00:13.344Z,76.20
2018-04-14T09:02:41.905Z,74.47
2018-04-14T09:05:09.356Z,74.27
2018-04-14T09:07:36.889Z,67.63
2018-04-14T09:10:04.339Z,62.70
2018-04-14T09:12:31.793Z,66.73
2018-04-14T09:14:59.258Z,61.80
2018-04-14T09:17:26.706Z,60.93
2018-04-14T09:19:54.179Z,58.73
2018-04-14T09:22:21.644Z,59.47
2018-04-14T09:24:49.092Z,64.17
2018-04-14T09:27:16.547Z,63.13
2018-04-14T09:29:44.019Z,58.77
2018-04-14T09:32:11.469Z,63.90
2018-04-14T09:34:38.916Z,62.83
2018-04-14T09:37:06.403Z,65.13
2018-04-14T09:39:33.833Z,61.83
2018-04-14T09:42:01.283Z,61.17
2018-04-14T09:44:28.734Z,44.63
2018-04-14T09:46:56.167Z,43.33
2018-04-14T09:49:24.369Z,46.17
2018-04-14T09:51:51.817Z,45.57
2018-04-14T09:54:19.253Z,47.90
2018-04-14T09:56:47.453Z,52.03
2018-04-14T09:59:14.899Z,49.93
2018-04-14T10:01:48.000Z,44.13
2018-04-14T10:04:15.439Z,41.40
2018-04-14T10:06:42.898Z,42.30
2018-04-14T10:09:10.331Z,43.73
2018-04-14T10:11:37.799Z,48.53
2018-04-14T10:14:06.013Z,46.37
2018-04-14T10:16:33.443Z,49.33
2018-04-14T10:19:00.896Z,47.40
2018-04-14T10:21:28.375Z,46.33
2018-04-14T10:24:04.368Z,44.60
2018-04-14T10:26:31.807Z,50.27
2018-04-14T10:28:59.241Z,38.20
2018-04-14T10:31:27.444Z,42.60
2018-04-14T10:33:54.885Z,47.50
2018-04-14T10:36:22.329Z,44.50
2018-04-14T10:38:50.537Z,44.90
2018-04-14T10:41:18.008Z,43.53
2018-04-14T10:43:45.443Z,42.83
2018-04-14T10:46:12.881Z,40.53
2018-04-14T10:48:41.518Z,41.27
2018-04-14T10:51:08.965Z,44.47
2018-04-14T10:53:36.419Z,38.67
2018-04-14T10:56:03.903Z,38.17
2018-04-14T10:58:31.344Z,41.40
2018-04-14T11:00:58.825Z,36.83
2018-04-14T11:03:26.259Z,39.27
2018-04-14T11:05:53.710Z,39.80
2018-04-14T11:08:21.242Z,40.93
2018-04-14T11:10:49.439Z,35.37
2018-04-14T11:13:16.875Z,40.73
2018-04-14T11:15:44.363Z,39.63
2018-04-14T11:18:11.812Z,40.50
2018-04-14T11:20:39.260Z,40.05
2018-04-14T11:23:06.717Z,42.33
2018-04-14T11:25:34.183Z,38.73
2018-04-14T11:28:01.643Z,40.40
2018-04-14T11:30:29.084Z,40.27
2018-04-14T11:32:56.566Z,39.33
2018-04-14T11:35:24.035Z,42.77
2018-04-14T11:37:51.459Z,44.90
2018-04-14T11:40:18.923Z,42.40
2018-04-14T11:42:46.393Z,41.73
2018-04-14T11:45:13.846Z,44.90
2018-04-14T11:47:41.293Z,41.70
2018-04-14T11:50:08.764Z,45.83
2018-04-14T11:52:36.211Z,40.10
2018-04-14T11:55:03.666Z,41.57
2018-04-14T11:57:31.155Z,43.60
2018-04-14T11:59:58.643Z,42.00
2018-04-14T12:02:26.859Z,43.00
2018-04-14T12:04:54.320Z,43.87
2018-04-14T12:07:21.771Z,39.83
2018-04-14T12:09:49.274Z,40.83
2018-04-14T12:12:16.692Z,42.90
2018-04-14T12:14:44.142Z,42.80
2018-04-14T12:17:11.573Z,42.27
2018-04-14T12:19:39.063Z,44.27
2018-04-14T12:22:06.518Z,41.13
2018-04-14T12:24:33.975Z,44.80
2018-04-14T12:27:01.411Z,40.77
2018-04-14T12:29:28.891Z,41.57
2018-04-14T12:31:56.348Z,36.43
2018-04-14T12:34:23.848Z,37.70
2018-04-14T12:36:51.369Z,40.07
2018-04-14T12:39:18.826Z,38.47
2018-04-14T12:41:46.268Z,37.77
2018-04-14T12:44:13.735Z,36.40
2018-04-14T12:46:41.178Z,36.07
2018-04-14T12:49:08.618Z,33.53
2018-04-14T12:51:36.819Z,35.00
2018-04-14T12:54:04.290Z,34.33
2018-04-14T12:56:31.732Z,35.30
2018-04-14T12:58:59.176Z,36.37
2018-04-14T13:01:26.607Z,32.37
2018-04-14T13:03:54.812Z,33.17
2018-04-14T13:06:22.255Z,32.63
2018-04-14T13:08:49.754Z,40.10
2018-04-14T13:11:17.217Z,33.17
2018-04-14T13:13:44.683Z,35.77
2018-04-14T13:16:12.121Z,30.77
2018-04-14T13:18:39.579Z,29.93
2018-04-14T13:21:07.035Z,30.23
2018-04-14T13:23:34.588Z,32.60
2018-04-14T13:26:02.022Z,30.43
2018-04-14T13:28:29.456Z,33.67
2018-04-14T13:30:57.769Z,30.40
2018-04-14T13:33:25.235Z,32.00
2018-04-14T13:35:52.693Z,30.73
2018-04-14T13:38:20.133Z,27.57
2018-04-14T13:40:47.563Z,28.30
2018-04-14T13:43:15.798Z,28.93
2018-04-14T13:45:43.239Z,27.87
2018-04-14T13:48:10.699Z,32.07
2018-04-14T13:50:38.164Z,28.52
2018-04-14T13:53:05.618Z,28.83
2018-04-14T13:55:34.100Z,33.47
2018-04-14T13:58:01.565Z,33.03
2018-04-14T14:00:28.996Z,29.87
2018-04-14T14:02:56.438Z,30.70
2018-04-14T14:05:23.875Z,30.65
2018-04-14T14:07:52.072Z,29.17
2018-04-14T14:10:19.556Z,28.10
2018-04-14T14:12:46.986Z,33.70
2018-04-14T14:15:14.427Z,29.23
2018-04-14T14:17:42.634Z,32.85
2018-04-14T14:20:10.107Z,30.52
2018-04-14T14:22:37.585Z,29.67
2018-04-14T14:25:06.039Z,32.15
2018-04-14T14:27:33.497Z,32.65
2018-04-14T14:30:00.946Z,30.30
2018-04-14T14:32:28.370Z,29.98
2018-04-14T14:34:55.868Z,30.25
2018-04-14T14:37:23.323Z,28.77
2018-04-14T14:39:50.772Z,27.52
2018-04-14T14:42:18.239Z,27.90
2018-04-14T14:44:45.680Z,29.33
2018-04-14T14:47:13.111Z,27.70
2018-04-14T14:49:41.331Z,31.45
2018-04-14T14:52:08.783Z,31.20
2018-04-14T14:54:36.226Z,28.40
2018-04-14T14:57:04.310Z,31.45
2018-04-14T14:59:31.731Z,28.90
2018-04-14T15:01:59.933Z,32.83
2018-04-14T15:04:27.428Z,30.02
2018-04-14T15:06:54.877Z,31.92
2018-04-14T15:09:23.256Z,26.30
2018-04-14T15:11:50.705Z,27.98
2018-04-14T15:14:18.154Z,30.25
2018-04-14T15:16:45.585Z,30.25
2018-04-14T15:19:13.021Z,28.02
2018-04-14T15:21:41.256Z,29.48
2018-04-14T15:24:08.696Z,28.58
2018-04-14T15:26:36.250Z,26.50
2018-04-14T15:29:03.687Z,27.37
2018-04-14T15:31:31.179Z,28.83
2018-04-14T15:33:58.626Z,27.45
2018-04-14T15:36:26.075Z,28.05
2018-04-14T15:38:53.543Z,29.85
2018-04-14T15:41:21.003Z,27.98
2018-04-14T15:43:48.450Z,27.20
2018-04-14T15:46:15.918Z,25.90
2018-04-14T15:48:43.380Z,27.37
2018-04-14T15:51:10.829Z,26.12
2018-04-14T15:53:38.263Z,33.75
2018-04-14T15:56:05.704Z,35.45
2018-04-14T15:58:33.211Z,32.70
2018-04-14T16:01:00.694Z,30.37
2018-04-14T16:03:28.140Z,26.95
2018-04-14T16:05:55.674Z,25.40
2018-04-14T16:08:23.136Z,24.05
2018-04-14T16:10:50.584Z,26.48
2018-04-14T16:13:18.066Z,24.37
2018-04-14T16:15:45.535Z,23.73
2018-04-14T16:18:13.067Z,23.95
2018-04-14T16:20:40.496Z,25.40
2018-04-14T16:23:07.936Z,26.23
2018-04-14T16:25:36.159Z,25.00
2018-04-14T16:28:03.635Z,31.48
2018-04-14T16:30:31.092Z,29.27
2018-04-14T16:32:58.531Z,26.95
2018-04-14T16:35:25.976Z,31.25
2018-04-14T16:37:53.534Z,31.05
2018-04-14T16:40:21.005Z,33.88
2018-04-14T16:42:48.445Z,35.75
2018-04-14T16:45:15.891Z,32.90
2018-04-14T16:47:43.320Z,35.20
2018-04-14T16:50:11.525Z,37.47
2018-04-14T16:52:38.960Z,36.83
2018-04-14T16:55:07.205Z,35.10
2018-04-14T16:57:34.639Z,35.67
2018-04-14T17:00:02.095Z,31.53
2018-04-14T17:02:29.523Z,36.13
2018-04-14T17:04:57.008Z,38.28
2018-04-14T17:07:25.164Z,37.40
2018-04-14T17:09:52.634Z,39.60
2018-04-14T17:12:20.089Z,37.67
2018-04-14T17:14:47.522Z,41.40
2018-04-14T17:17:15.002Z,72.47
2018-04-14T17:19:42.443Z,41.47
2018-04-14T17:22:09.881Z,40.67
2018-04-14T17:24:38.093Z,40.83
2018-04-14T17:27:05.515Z,38.00
2018-04-14T17:29:33.728Z,37.33
2018-04-14T17:32:01.179Z,38.87
2018-04-14T17:34:28.659Z,38.37
2018-04-14T17:36:56.082Z,39.03
2018-04-14T17:39:23.595Z,41.40
2018-04-14T17:41:51.043Z,44.30
2018-04-14T17:44:18.516Z,38.53
2018-04-14T17:46:45.952Z,38.77
2018-04-14T17:49:13.487Z,38.67
2018-04-14T17:51:40.937Z,38.20
2018-04-14T17:54:08.380Z,39.57
2018-04-14T17:56:35.811Z,37.37
2018-04-14T17:59:04.049Z,40.10
2018-04-14T18:01:31.484Z,41.80
2018-04-14T18:03:58.960Z,39.90
2018-04-14T18:06:26.409Z,43.57
2018-04-14T18:08:53.986Z,41.23
2018-04-14T18:11:21.411Z,38.77
2018-04-14T18:13:48.861Z,41.03
2018-04-14T18:16:16.429Z,42.33
2018-04-14T18:18:43.858Z,42.13
2018-04-14T18:21:12.073Z,40.77
2018-04-14T18:23:39.508Z,40.10
2018-04-14T18:26:06.936Z,39.93
2018-04-14T18:28:34.566Z,42.60
2018-04-14T18:31:02.007Z,39.83
2018-04-14T18:33:29.493Z,42.47
2018-04-14T18:35:56.919Z,42.13
2018-04-14T18:38:24.359Z,45.33
2018-04-14T18:40:51.801Z,45.93
2018-04-14T18:43:20.007Z,44.80
2018-04-14T18:45:47.453Z,43.43
2018-04-14T18:48:14.883Z,41.53
2018-04-14T18:50:43.176Z,42.10
2018-04-14T18:53:10.600Z,42.73
2018-04-14T18:55:38.166Z,41.23
2018-04-14T18:58:06.407Z,46.23
2018-04-14T19:00:33.854Z,42.37
2018-04-14T19:03:01.291Z,45.93
2018-04-14T19:05:28.735Z,46.73
2018-04-14T19:07:56.171Z,46.07
2018-04-14T19:10:24.410Z,44.97
2018-04-14T19:12:51.857Z,47.57
2018-04-14T19:15:19.419Z,44.33
2018-04-14T19:17:46.896Z,45.37
2018-04-14T19:20:15.855Z,47.60
2018-04-14T19:22:43.327Z,46.67
2018-04-14T19:25:10.798Z,50.60
2018-04-14T19:27:38.332Z,44.30
2018-04-14T19:30:05.767Z,54.10
2018-04-14T19:32:33.268Z,53.87
2018-04-14T19:35:00.733Z,52.40
2018-04-14T19:37:28.255Z,51.70
2018-04-14T19:39:55.715Z,54.37
2018-04-14T19:42:23.239Z,47.07
2018-04-14T19:44:50.669Z,52.27
2018-04-14T19:47:18.212Z,49.13
2018-04-14T19:49:45.641Z,48.23
2018-04-14T19:52:13.111Z,48.83
2018-04-14T19:54:48.687Z,49.67
2018-04-14T19:57:16.216Z,47.23
2018-04-14T19:59:43.700Z,47.97
2018-04-14T20:02:11.092Z,51.27
2018-04-14T20:04:39.342Z,49.43
2018-04-14T20:07:06.803Z,49.97
2018-04-14T20:09:34.199Z,49.17
2018-04-14T20:12:01.645Z,52.77
2018-04-14T20:14:29.868Z,44.43
2018-04-14T20:16:57.415Z,58.20
2018-04-14T20:19:24.904Z,47.43
2018-04-14T20:21:52.442Z,50.33
2018-04-14T20:24:20.944Z,49.37
2018-04-14T20:26:48.395Z,57.07
2018-04-14T20:29:15.823Z,53.33
2018-04-14T20:31:43.271Z,50.30
2018-04-14T20:34:10.699Z,55.57
2018-04-14T20:36:38.148Z,49.90
2018-04-14T20:39:06.373Z,48.80
2018-04-14T20:41:33.838Z,46.67
2018-04-14T20:44:01.283Z,49.73
2018-04-14T20:46:28.731Z,49.57
2018-04-14T20:48:56.188Z,48.90
2018-04-14T20:51:23.688Z,50.93
2018-04-14T20:53:51.145Z,46.77
2018-04-14T20:56:18.688Z,48.67
2018-04-14T20:58:46.130Z,45.20
2018-04-14T21:01:13.564Z,49.87
2018-04-14T21:03:41.003Z,46.03
2018-04-14T21:06:09.218Z,46.17
2018-04-14T21:08:36.680Z,48.80
2018-04-14T21:11:04.136Z,47.73
2018-04-14T21:13:31.581Z,55.83
2018-04-14T21:15:59.027Z,50.80
2018-04-14T21:18:26.521Z,52.93
2018-04-14T21:20:53.949Z,48.73
2018-04-14T21:23:21.425Z,49.60
2018-04-14T21:25:48.854Z,49.03
2018-04-14T21:28:16.304Z,54.43
2018-04-14T21:30:43.743Z,52.80
2018-04-14T21:33:11.967Z,49.40
2018-04-14T21:35:39.424Z,50.53
2018-04-14T21:38:06.888Z,51.67
2018-04-14T21:40:34.331Z,52.47
2018-04-14T21:43:01.804Z,54.50
2018-04-14T21:45:29.271Z,50.10
2018-04-14T21:47:56.708Z,56.50
2018-04-14T21:50:24.138Z,52.40
2018-04-14T21:52:51.575Z,55.33
2018-04-14T21:55:19.773Z,51.30
2018-04-14T21:57:47.203Z,53.63
2018-04-14T22:00:15.426Z,54.43
2018-04-14T22:02:42.873Z,51.53
2018-04-14T22:05:10.318Z,55.80
2018-04-14T22:07:37.811Z,57.13
2018-04-14T22:10:05.363Z,53.30
2018-04-14T22:12:32.892Z,52.33
2018-04-14T22:15:00.280Z,55.50
2018-04-14T22:17:27.707Z,55.37
2018-04-14T22:19:55.199Z,54.70
2018-04-14T22:22:22.632Z,52.87
2018-04-14T22:24:50.067Z,55.67
2018-04-14T22:27:17.506Z,55.60
2018-04-14T22:29:45.023Z,59.57
2018-04-14T22:32:12.483Z,63.63
2018-04-14T22:34:39.921Z,58.00
2018-04-14T22:37:07.356Z,53.33
2018-04-14T22:39:34.798Z,65.67
2018-04-14T22:42:03.005Z,57.20
2018-04-14T22:44:30.487Z,57.35
2018-04-14T22:46:57.941Z,58.07
2018-04-14T22:49:25.400Z,61.15
2018-04-14T22:51:52.909Z,58.67
2018-04-14T22:54:20.295Z,62.23
2018-04-14T22:56:47.765Z,58.97
2018-04-14T22:59:15.200Z,59.03
2018-04-14T23:01:42.635Z,54.70
2018-04-14T23:04:10.844Z,55.27
2018-04-14T23:06:38.312Z,60.80
2018-04-14T23:09:06.630Z,65.63
2018-04-14T23:11:34.075Z,59.17
2018-04-14T23:14:01.612Z,61.23
2018-04-14T23:16:29.055Z,66.63
2018-04-14T23:18:56.477Z,62.77
2018-04-14T23:21:24.686Z,62.83
2018-04-14T23:23:52.143Z,68.90
2018-04-14T23:26:19.599Z,62.93
2018-04-14T23:28:47.031Z,66.77
2018-04-14T23:31:14.523Z,61.63
2018-04-14T23:33:41.964Z,62.80
2018-04-14T23:36:09.462Z,68.83
2018-04-14T23:38:36.895Z,65.07
2018-04-14T23:41:04.331Z,61.40
2018-04-14T23:43:31.763Z,68.20
2018-04-14T23:45:59.971Z,68.47
2018-04-14T23:48:27.435Z,79.83
2018-04-14T23:50:54.898Z,74.67
2018-04-14T23:53:22.353Z,81.83
2018-04-14T23:55:49.779Z,74.23
2018-04-14T23:58:17.219Z,83.63
